Time;durP1;ratioP1;P1;durP2;ratioP2;P2;SDS_P1;SDS_P2;PMS_P1;PMS_P2;Temp;Humidity;BMP_temperature;BMP_pressure;BME280_temperature;BME280_humidity;BME280_pressure;Samples;Min_cycle;Max_cycle;Signal;HPM_P1;HPM_P2
2021/12/04 00:01:53;;;;;;;0.90;0.90;;;;;;;;;;1837807;76;26308;-34
2021/12/04 00:04:33;;;;;;;0.80;0.80;;;;;;;;;;1836782;76;26329;-34
2021/12/04 00:06:56;;;;;;;1.90;0.80;;;;;;;;;;1844312;76;26265;-34
2021/12/04 00:09:23;;;;;;;0.80;0.80;;;;;;;;;;1840635;76;26241;-34
2021/12/04 00:11:56;;;;;;;1.15;0.90;;;;;;;;;;1846925;76;26339;-34
2021/12/04 00:14:23;;;;;;;0.88;0.70;;;;;;;;;;1839250;77;26257;-34
2021/12/04 00:16:51;;;;;;;0.90;0.90;;;;;;;;;;1847438;76;26632;-34
2021/12/04 00:19:18;;;;;;;1.27;0.80;;;;;;;;;;1835187;76;26322;-34
2021/12/04 00:21:45;;;;;;;0.80;0.80;;;;;;;;;;1846794;76;26780;-34
2021/12/04 00:24:13;;;;;;;0.85;0.85;;;;;;;;;;1845832;77;26281;-34
2021/12/04 00:26:40;;;;;;;0.88;0.88;;;;;;;;;;1838244;77;26260;-34
2021/12/04 00:29:07;;;;;;;0.70;0.70;;;;;;;;;;1834580;76;26266;-34
2021/12/04 00:31:35;;;;;;;0.78;0.78;;;;;;;;;;1834736;76;26207;-34
2021/12/04 00:34:02;;;;;;;0.85;0.85;;;;;;;;;;1838783;77;26324;-34
2021/12/04 00:50:16;;;;;;;0.90;0.90;;;;;;;;;;1843350;76;26262;-34
2021/12/04 00:52:43;;;;;;;0.80;0.80;;;;;;;;;;1847276;76;26323;-34
2021/12/04 00:55:10;;;;;;;0.80;0.80;;;;;;;;;;1843921;76;26320;-34
2021/12/04 00:57:38;;;;;;;0.90;0.90;;;;;;;;;;1839123;76;26243;-34
2021/12/04 01:00:07;;;;;;;0.90;0.90;;;;;;;;;;1836708;76;26718;-34
2021/12/04 01:02:34;;;;;;;2.15;0.88;;;;;;;;;;1834348;76;26812;-34
2021/12/04 01:05:01;;;;;;;2.33;0.93;;;;;;;;;;1837126;76;26305;-34
2021/12/04 01:07:29;;;;;;;0.90;0.90;;;;;;;;;;1839759;76;26243;-34
2021/12/04 01:09:56;;;;;;;0.70;0.70;;;;;;;;;;1847397;76;26262;-34
2021/12/04 01:12:23;;;;;;;0.80;0.80;;;;;;;;;;1830986;77;26319;-34
2021/12/04 01:14:51;;;;;;;0.90;0.90;;;;;;;;;;1835064;77;27074;-34
2021/12/04 01:17:18;;;;;;;1.17;0.70;;;;;;;;;;1847461;76;26238;-34
2021/12/04 01:19:45;;;;;;;0.68;0.68;;;;;;;;;;1841080;76;26300;-34
2021/12/04 01:22:13;;;;;;;0.70;0.70;;;;;;;;;;1843403;76;26710;-38
2021/12/04 01:24:40;;;;;;;0.80;0.80;;;;;;;;;;1841564;76;26237;-34
2021/12/04 01:27:08;;;;;;;1.20;0.80;;;;;;;;;;1841431;76;26358;-34
2021/12/04 01:29:35;;;;;;;0.90;0.90;;;;;;;;;;1840001;77;26960;-34
2021/12/04 01:32:06;;;;;;;0.80;0.80;;;;;;;;;;1846077;76;26198;-34
2021/12/04 01:34:31;;;;;;;1.27;0.90;;;;;;;;;;1840319;76;26213;-34
2021/12/04 01:36:59;;;;;;;0.62;0.62;;;;;;;;;;1838269;76;26266;-34
2021/12/04 01:39:26;;;;;;;0.78;0.78;;;;;;;;;;1840664;76;26246;-34
2021/12/04 01:41:53;;;;;;;0.70;0.70;;;;;;;;;;1845015;77;26323;-34
2021/12/04 01:44:21;;;;;;;0.82;0.80;;;;;;;;;;1842430;77;26265;-34
2021/12/04 01:46:48;;;;;;;0.90;0.90;;;;;;;;;;1841158;76;26736;-34
2021/12/04 01:49:16;;;;;;;0.80;0.80;;;;;;;;;;1830675;77;26280;-34
2021/12/04 01:51:43;;;;;;;0.85;0.85;;;;;;;;;;1844966;77;26209;-34
2021/12/04 01:54:10;;;;;;;0.90;0.90;;;;;;;;;;1840080;76;26545;-36
2021/12/04 01:56:38;;;;;;;0.90;0.90;;;;;;;;;;1840955;76;26347;-34
2021/12/04 01:59:05;;;;;;;0.70;0.70;;;;;;;;;;1834204;76;26206;-34
2021/12/04 02:01:33;;;;;;;0.80;0.80;;;;;;;;;;1833550;76;26254;-34
2021/12/04 02:04:00;;;;;;;0.90;0.90;;;;;;;;;;1837676;77;27501;-34
2021/12/04 02:06:28;;;;;;;0.90;0.90;;;;;;;;;;1836885;76;26297;-34
2021/12/04 02:08:55;;;;;;;1.40;0.80;;;;;;;;;;1846269;77;27323;-35
2021/12/04 02:11:22;;;;;;;0.70;0.70;;;;;;;;;;1844949;76;26246;-34
2021/12/04 02:13:50;;;;;;;1.27;0.80;;;;;;;;;;1838996;76;26253;-34
2021/12/04 02:16:18;;;;;;;0.70;0.70;;;;;;;;;;1838707;76;26367;-34
2021/12/04 02:18:46;;;;;;;0.70;0.70;;;;;;;;;;1837097;76;27390;-34
2021/12/04 02:21:14;;;;;;;0.80;0.80;;;;;;;;;;1830890;77;26273;-34
2021/12/04 02:23:41;;;;;;;0.70;0.70;;;;;;;;;;1832077;76;26256;-34
2021/12/04 02:26:09;;;;;;;0.80;0.80;;;;;;;;;;1842090;76;26258;-34
2021/12/04 02:28:36;;;;;;;0.90;0.90;;;;;;;;;;1841256;77;26364;-34
2021/12/04 02:31:04;;;;;;;0.80;0.80;;;;;;;;;;1844004;77;26344;-34
2021/12/04 02:33:31;;;;;;;0.80;0.80;;;;;;;;;;1832493;77;26809;-34
2021/12/04 02:35:58;;;;;;;0.70;0.70;;;;;;;;;;1832453;76;26273;-34
2021/12/04 02:38:26;;;;;;;0.90;0.90;;;;;;;;;;1838705;76;27198;-35
2021/12/04 02:40:54;;;;;;;0.78;0.78;;;;;;;;;;1838294;77;26293;-34
2021/12/04 02:43:22;;;;;;;0.70;0.70;;;;;;;;;;1830593;77;26265;-34
2021/12/04 02:45:50;;;;;;;0.70;0.70;;;;;;;;;;1828985;76;26340;-34
2021/12/04 02:48:17;;;;;;;0.80;0.80;;;;;;;;;;1852412;76;26263;-34
2021/12/04 02:50:44;;;;;;;0.90;0.90;;;;;;;;;;1845517;77;26671;-34
2021/12/04 02:53:12;;;;;;;0.70;0.70;;;;;;;;;;1831004;76;26241;-34
2021/12/04 02:55:39;;;;;;;0.80;0.80;;;;;;;;;;1852543;76;26405;-34
2021/12/04 02:58:07;;;;;;;0.80;0.80;;;;;;;;;;1858765;76;26280;-34
2021/12/04 03:00:34;;;;;;;0.80;0.80;;;;;;;;;;1855590;76;26775;-35
2021/12/04 03:03:02;;;;;;;0.50;0.50;;;;;;;;;;1841961;77;26264;-34
2021/12/04 03:05:30;;;;;;;0.80;0.80;;;;;;;;;;1842628;77;26374;-34
2021/12/04 03:07:58;;;;;;;0.80;0.80;;;;;;;;;;1842111;76;26281;-34
2021/12/04 03:10:27;;;;;;;0.80;0.80;;;;;;;;;;1845957;76;26646;-34
2021/12/04 03:12:54;;;;;;;0.80;0.80;;;;;;;;;;1849428;77;26304;-34
2021/12/04 03:15:22;;;;;;;0.60;0.60;;;;;;;;;;1849542;77;26782;-34
2021/12/04 03:17:50;;;;;;;0.80;0.80;;;;;;;;;;1854719;76;26709;-34
2021/12/04 03:20:18;;;;;;;0.70;0.70;;;;;;;;;;1842270;76;26245;-34
2021/12/04 03:22:47;;;;;;;0.70;0.70;;;;;;;;;;1848211;77;26230;-34
2021/12/04 03:25:18;;;;;;;0.70;0.70;;;;;;;;;;1855796;76;26264;-34
2021/12/04 03:27:47;;;;;;;0.65;0.65;;;;;;;;;;1852318;76;26981;-34
2021/12/04 03:30:27;;;;;;;0.80;0.80;;;;;;;;;;1853639;76;26277;-34
2021/12/04 03:35:12;;;;;;;0.75;0.75;;;;;;;;;;1844137;76;26292;-35
2021/12/04 03:40:39;;;;;;;0.70;0.70;;;;;;;;;;1841261;76;26392;-34
2021/12/04 03:43:05;;;;;;;0.70;0.70;;;;;;;;;;1854729;76;26253;-34
2021/12/04 03:45:34;;;;;;;0.70;0.70;;;;;;;;;;1856486;76;26319;-34
2021/12/04 03:48:08;;;;;;;0.62;0.62;;;;;;;;;;1858342;76;26927;-34
2021/12/04 03:50:34;;;;;;;0.60;0.60;;;;;;;;;;1843681;75;26335;-34
2021/12/04 03:53:02;;;;;;;0.78;0.78;;;;;;;;;;1859743;77;26253;-34
2021/12/04 03:55:29;;;;;;;0.70;0.70;;;;;;;;;;1858613;75;26774;-34
2021/12/04 03:57:57;;;;;;;0.60;0.60;;;;;;;;;;1857806;77;26272;-34
2021/12/04 04:00:28;;;;;;;0.72;0.72;;;;;;;;;;1849257;75;26280;-34
2021/12/04 04:02:53;;;;;;;0.60;0.60;;;;;;;;;;1853204;76;26367;-34
2021/12/04 04:05:20;;;;;;;0.70;0.70;;;;;;;;;;1843662;75;26793;-34
2021/12/04 04:07:48;;;;;;;0.70;0.70;;;;;;;;;;1845671;77;26346;-34
2021/12/04 04:10:15;;;;;;;0.80;0.80;;;;;;;;;;1852738;76;26249;-34
2021/12/04 04:12:42;;;;;;;0.60;0.60;;;;;;;;;;1843123;77;26420;-34
2021/12/04 04:15:10;;;;;;;0.80;0.80;;;;;;;;;;1840171;76;26956;-34
2021/12/04 04:17:42;;;;;;;0.60;0.60;;;;;;;;;;1853192;75;26284;-34
2021/12/04 04:20:07;;;;;;;1.07;0.78;;;;;;;;;;1854082;77;26260;-34
2021/12/04 04:22:34;;;;;;;0.60;0.60;;;;;;;;;;1847104;75;26773;-34
2021/12/04 04:25:01;;;;;;;0.80;0.80;;;;;;;;;;1858614;75;26792;-34
2021/12/04 04:27:29;;;;;;;0.70;0.70;;;;;;;;;;1851445;75;26285;-34
2021/12/04 04:29:56;;;;;;;0.75;0.72;;;;;;;;;;1858845;75;26233;-34
2021/12/04 04:32:24;;;;;;;0.70;0.70;;;;;;;;;;1852644;76;26268;-34
2021/12/04 04:34:54;;;;;;;0.65;0.65;;;;;;;;;;1857208;76;26281;-34
2021/12/04 05:02:05;;;;;;;0.65;0.65;;;;;;;;;;1855845;75;27510;-34
2021/12/04 05:12:46;;;;;;;0.60;0.60;;;;;;;;;;1856717;76;25381;-33
2021/12/04 05:15:01;;;;;;;0.68;0.68;;;;;;;;;;1856621;76;26344;-33
2021/12/04 05:17:31;;;;;;;0.90;0.62;;;;;;;;;;1856986;76;26326;-33
2021/12/04 05:19:56;;;;;;;0.70;0.70;;;;;;;;;;1852448;76;26786;-33
2021/12/04 05:22:24;;;;;;;0.70;0.70;;;;;;;;;;1869207;75;26258;-33
2021/12/04 05:24:51;;;;;;;0.70;0.70;;;;;;;;;;1865105;76;26807;-33
2021/12/04 05:27:18;;;;;;;0.60;0.60;;;;;;;;;;1867041;75;26316;-33
2021/12/04 05:29:46;;;;;;;0.80;0.80;;;;;;;;;;1854021;75;26206;-33
2021/12/04 05:32:15;;;;;;;0.70;0.70;;;;;;;;;;1856963;75;26750;-33
2021/12/04 05:34:42;;;;;;;0.65;0.65;;;;;;;;;;1852842;75;26730;-33
2021/12/04 05:37:10;;;;;;;0.70;0.70;;;;;;;;;;1856601;75;26321;-33
2021/12/04 05:39:37;;;;;;;0.68;0.50;;;;;;;;;;1863876;76;26316;-33
2021/12/04 05:42:05;;;;;;;0.75;0.68;;;;;;;;;;1857064;76;26660;-33
2021/12/04 05:44:34;;;;;;;0.70;0.70;;;;;;;;;;1874943;75;26626;-33
2021/12/04 05:47:08;;;;;;;1.45;0.70;;;;;;;;;;1855039;75;26258;-33
2021/12/04 05:49:37;;;;;;;0.78;0.60;;;;;;;;;;1871424;75;26769;-33
2021/12/04 05:52:16;;;;;;;0.65;0.65;;;;;;;;;;1850223;75;26318;-33
2021/12/04 05:57:06;;;;;;;0.60;0.60;;;;;;;;;;1863234;76;26332;-33
2021/12/04 05:59:34;;;;;;;0.60;0.60;;;;;;;;;;1854622;75;26269;-33
2021/12/04 06:02:01;;;;;;;0.70;0.70;;;;;;;;;;1855409;75;26290;-33
2021/12/04 06:04:29;;;;;;;1.20;0.70;;;;;;;;;;1860501;76;26345;-33
2021/12/04 06:06:56;;;;;;;0.50;0.50;;;;;;;;;;1838836;76;26736;-33
2021/12/04 06:09:23;;;;;;;0.60;0.60;;;;;;;;;;1839891;76;26301;-33
2021/12/04 06:11:51;;;;;;;0.60;0.60;;;;;;;;;;1845033;76;26319;-33
2021/12/04 06:14:18;;;;;;;2.15;0.70;;;;;;;;;;1852495;76;26257;-33
2021/12/04 06:16:45;;;;;;;1.15;0.93;;;;;;;;;;1830923;76;26249;-33
2021/12/04 06:19:25;;;;;;;1.05;0.95;;;;;;;;;;1830088;76;26697;-33
2021/12/04 06:24:27;;;;;;;2.33;0.80;;;;;;;;;;1846064;76;26294;-34
2021/12/04 06:26:54;;;;;;;2.50;0.80;;;;;;;;;;1855899;76;27260;-34
2021/12/04 06:29:24;;;;;;;3.92;0.90;;;;;;;;;;1844353;76;26261;-34
2021/12/04 06:31:51;;;;;;;1.20;0.70;;;;;;;;;;1845252;76;26330;-34
2021/12/04 06:34:18;;;;;;;0.75;0.65;;;;;;;;;;1841381;76;26304;-34
2021/12/04 06:36:46;;;;;;;1.65;0.80;;;;;;;;;;1840293;76;26329;-34
2021/12/04 06:39:13;;;;;;;0.88;0.78;;;;;;;;;;1847361;76;26325;-34
2021/12/04 06:41:41;;;;;;;1.57;0.70;;;;;;;;;;1843114;76;26202;-34
2021/12/04 06:44:08;;;;;;;2.47;0.90;;;;;;;;;;1828811;76;27248;-34
2021/12/04 06:46:35;;;;;;;0.80;0.80;;;;;;;;;;1818385;76;26272;-34
2021/12/04 06:49:08;;;;;;;1.62;0.90;;;;;;;;;;1841724;76;26713;-34
2021/12/04 06:51:38;;;;;;;1.75;0.70;;;;;;;;;;1834402;76;26833;-34
2021/12/04 06:54:06;;;;;;;3.22;1.00;;;;;;;;;;1845910;76;26266;-34
2021/12/04 06:56:37;;;;;;;4.92;1.10;;;;;;;;;;1837916;76;26277;-34
2021/12/04 06:59:08;;;;;;;3.52;0.85;;;;;;;;;;1841516;76;27237;-34
2021/12/04 07:01:35;;;;;;;4.67;1.00;;;;;;;;;;1837294;76;26339;-34
2021/12/04 07:04:03;;;;;;;1.30;0.90;;;;;;;;;;1842558;76;27428;-34
2021/12/04 07:06:30;;;;;;;3.08;0.95;;;;;;;;;;1843669;76;26257;-34
2021/12/04 07:08:58;;;;;;;1.20;1.20;;;;;;;;;;1860005;75;26246;-34
2021/12/04 07:11:26;;;;;;;0.95;0.95;;;;;;;;;;1846550;75;27211;-34
2021/12/04 07:13:54;;;;;;;2.33;1.07;;;;;;;;;;1856805;75;26761;-34
2021/12/04 07:16:22;;;;;;;1.25;0.90;;;;;;;;;;1859357;75;26312;-34
2021/12/04 07:18:50;;;;;;;1.00;0.90;;;;;;;;;;1862515;75;26248;-34
2021/12/04 07:21:18;;;;;;;2.87;0.98;;;;;;;;;;1845704;75;26272;-34
2021/12/04 07:23:46;;;;;;;1.27;1.00;;;;;;;;;;1862486;75;26268;-34
2021/12/04 07:26:13;;;;;;;2.55;1.40;;;;;;;;;;1853924;75;26299;-34
2021/12/04 07:28:41;;;;;;;3.47;1.30;;;;;;;;;;1852276;75;26264;-34
2021/12/04 07:31:08;;;;;;;2.50;1.17;;;;;;;;;;1866043;75;26205;-34
2021/12/04 07:33:36;;;;;;;3.58;1.27;;;;;;;;;;1855562;75;26698;-34
2021/12/04 07:36:04;;;;;;;2.80;1.20;;;;;;;;;;1856287;75;26300;-34
2021/12/04 07:38:31;;;;;;;6.17;1.10;;;;;;;;;;1857418;75;26290;-34
2021/12/04 07:41:03;;;;;;;5.87;1.42;;;;;;;;;;1853571;75;26249;-34
2021/12/04 07:43:31;;;;;;;1.55;1.17;;;;;;;;;;1849813;75;26773;-34
2021/12/04 07:45:58;;;;;;;4.70;1.02;;;;;;;;;;1868758;75;26240;-34
2021/12/04 07:48:26;;;;;;;6.80;1.52;;;;;;;;;;1862137;75;26277;-34
2021/12/04 07:50:55;;;;;;;5.33;1.42;;;;;;;;;;1856004;75;26242;-34
2021/12/04 07:53:22;;;;;;;2.85;1.30;;;;;;;;;;1873432;75;26343;-34
2021/12/04 07:55:50;;;;;;;3.98;1.40;;;;;;;;;;1867016;75;26315;-34
2021/12/04 07:58:17;;;;;;;4.37;1.10;;;;;;;;;;1859532;75;26917;-34
2021/12/04 08:00:44;;;;;;;5.87;1.30;;;;;;;;;;1856979;75;26262;-35
2021/12/04 08:03:12;;;;;;;8.55;1.45;;;;;;;;;;1863641;75;26229;-34
2021/12/04 08:05:39;;;;;;;4.33;1.20;;;;;;;;;;1867642;75;26288;-34
2021/12/04 08:08:07;;;;;;;2.15;1.35;;;;;;;;;;1862889;75;26289;-34
2021/12/04 08:10:34;;;;;;;5.72;1.20;;;;;;;;;;1847183;75;27233;-34
2021/12/04 08:13:02;;;;;;;3.15;1.30;;;;;;;;;;1835704;76;26277;-34
2021/12/04 08:15:31;;;;;;;2.98;1.20;;;;;;;;;;1832852;76;26791;-34
2021/12/04 08:17:58;;;;;;;3.22;1.32;;;;;;;;;;1830239;76;26331;-34
2021/12/04 08:20:25;;;;;;;5.30;1.65;;;;;;;;;;1841058;76;26330;-34
2021/12/04 08:22:53;;;;;;;3.85;1.17;;;;;;;;;;1838279;76;26258;-34
2021/12/04 08:25:21;;;;;;;2.83;1.32;;;;;;;;;;1845211;76;26229;-34
2021/12/04 08:27:49;;;;;;;3.52;1.00;;;;;;;;;;1838094;76;26618;-34
2021/12/04 08:30:17;;;;;;;1.22;1.10;;;;;;;;;;1845848;76;26269;-34
2021/12/04 08:32:45;;;;;;;3.15;1.17;;;;;;;;;;1836841;76;26928;-34
2021/12/04 08:35:13;;;;;;;3.87;1.10;;;;;;;;;;1828301;76;26263;-34
2021/12/04 08:37:40;;;;;;;2.17;1.10;;;;;;;;;;1835725;76;26285;-35
2021/12/04 08:40:11;;;;;;;3.70;1.05;;;;;;;;;;1852272;76;26884;-34
2021/12/04 08:42:39;;;;;;;5.28;1.20;;;;;;;;;;1835490;76;26312;-40
2021/12/04 08:45:08;;;;;;;4.28;1.30;;;;;;;;;;1826779;76;26355;-34
2021/12/04 08:47:37;;;;;;;6.45;1.50;;;;;;;;;;1831230;76;26256;-34
2021/12/04 08:50:09;;;;;;;2.80;1.15;;;;;;;;;;1829322;76;26277;-34
2021/12/04 08:52:37;;;;;;;1.75;1.20;;;;;;;;;;1839101;76;26261;-33
2021/12/04 08:55:05;;;;;;;3.35;1.40;;;;;;;;;;1833563;76;26686;-35
2021/12/04 08:57:33;;;;;;;1.57;1.20;;;;;;;;;;1838276;76;27080;-34
2021/12/04 09:00:00;;;;;;;2.62;1.20;;;;;;;;;;1863168;76;26272;-34
2021/12/04 09:02:28;;;;;;;3.70;1.20;;;;;;;;;;1843381;76;26228;-33
2021/12/04 09:04:57;;;;;;;5.65;1.10;;;;;;;;;;1839004;76;26343;-34
2021/12/04 09:07:24;;;;;;;14.63;1.92;;;;;;;;;;1854690;76;26217;-33
2021/12/04 09:09:55;;;;;;;3.55;1.20;;;;;;;;;;1847952;76;27471;-34
2021/12/04 09:12:21;;;;;;;3.83;1.05;;;;;;;;;;1859397;76;26336;-34
2021/12/04 09:14:49;;;;;;;1.85;1.10;;;;;;;;;;1845716;76;26311;-34
2021/12/04 09:17:19;;;;;;;1.65;1.20;;;;;;;;;;1855806;76;26292;-34
2021/12/04 09:19:46;;;;;;;1.40;1.07;;;;;;;;;;1859631;76;26724;-33
2021/12/04 09:22:16;;;;;;;1.30;1.05;;;;;;;;;;1857863;76;26355;-34
2021/12/04 09:24:46;;;;;;;1.67;1.20;;;;;;;;;;1843475;76;26341;-35
2021/12/04 09:27:19;;;;;;;3.22;1.10;;;;;;;;;;1845567;76;26259;-34
2021/12/04 09:59:12;;;;;;;0.90;0.90;;;;;;;;;;1852230;76;27328;-34
2021/12/04 10:02:35;;;;;;;0.70;0.70;;;;;;;;;;1856491;76;26904;-34
2021/12/04 10:13:31;;;;;;;1.20;0.70;;;;;;;;;;1841047;75;26336;-34
2021/12/04 10:34:41;;;;;;;1.22;0.68;;;;;;;;;;1848411;75;26871;-34
2021/12/04 10:37:10;;;;;;;0.70;0.70;;;;;;;;;;1853822;75;26264;-34
2021/12/04 10:39:38;;;;;;;0.75;0.75;;;;;;;;;;1843800;75;26280;-35
2021/12/04 10:42:16;;;;;;;0.70;0.70;;;;;;;;;;1848328;75;26394;-34
2021/12/04 10:44:48;;;;;;;0.70;0.70;;;;;;;;;;1845337;75;26230;-34
2021/12/04 10:47:13;;;;;;;0.60;0.60;;;;;;;;;;1844051;75;26399;-34
2021/12/04 10:52:23;;;;;;;0.60;0.60;;;;;;;;;;1863854;75;26372;-34
2021/12/04 10:54:54;;;;;;;0.82;0.80;;;;;;;;;;1860080;75;26776;-34
2021/12/04 10:57:48;;;;;;;0.78;0.78;;;;;;;;;;1855553;75;26411;-34
2021/12/04 11:00:08;;;;;;;0.60;0.60;;;;;;;;;;1855135;75;26447;-34
2021/12/04 11:02:30;;;;;;;1.30;0.70;;;;;;;;;;1856336;75;26288;-34
2021/12/04 11:05:12;;;;;;;0.70;0.70;;;;;;;;;;1848304;75;26906;-35
2021/12/04 11:21:32;;;;;;;0.62;0.62;;;;;;;;;;1856015;75;26325;-34
2021/12/04 11:24:11;;;;;;;0.75;0.75;;;;;;;;;;1855892;75;26348;-34
2021/12/04 11:40:04;;;;;;;0.62;0.62;;;;;;;;;;1856636;75;26682;-34
2021/12/04 11:42:38;;;;;;;0.60;0.60;;;;;;;;;;1843602;75;26317;-35
2021/12/04 11:45:16;;;;;;;0.60;0.60;;;;;;;;;;1849749;75;26808;-34
2021/12/04 11:47:38;;;;;;;0.50;0.50;;;;;;;;;;1853969;75;26272;-34
2021/12/04 11:50:25;;;;;;;0.60;0.60;;;;;;;;;;1856947;75;26679;-34
2021/12/04 11:52:54;;;;;;;0.70;0.70;;;;;;;;;;1835134;75;26269;-34
2021/12/04 11:55:23;;;;;;;0.60;0.60;;;;;;;;;;1853979;75;26311;-34
2021/12/04 11:57:51;;;;;;;0.68;0.68;;;;;;;;;;1847589;75;26225;-34
2021/12/04 12:00:25;;;;;;;0.50;0.50;;;;;;;;;;1846770;75;26280;-35
2021/12/04 12:02:50;;;;;;;0.70;0.70;;;;;;;;;;1855926;75;26254;-34
2021/12/04 12:05:18;;;;;;;0.60;0.60;;;;;;;;;;1850634;75;26749;-35
2021/12/04 12:07:47;;;;;;;0.80;0.80;;;;;;;;;;1850106;75;26351;-34
2021/12/04 12:10:14;;;;;;;0.50;0.50;;;;;;;;;;1852183;75;26328;-35
2021/12/04 12:12:43;;;;;;;0.70;0.70;;;;;;;;;;1854144;75;26868;-34
2021/12/04 12:15:28;;;;;;;0.57;0.57;;;;;;;;;;1860922;75;26852;-35
2021/12/04 12:17:54;;;;;;;0.60;0.60;;;;;;;;;;1855522;75;26293;-35
2021/12/04 12:20:37;;;;;;;0.40;0.40;;;;;;;;;;1857173;75;26285;-34
2021/12/04 12:23:07;;;;;;;0.50;0.50;;;;;;;;;;1863239;75;26313;-35
2021/12/04 12:34:03;;;;;;;0.60;0.60;;;;;;;;;;1851166;75;26366;-34
2021/12/04 12:36:27;;;;;;;0.60;0.60;;;;;;;;;;1859338;75;26332;-35
2021/12/04 12:39:09;;;;;;;0.50;0.50;;;;;;;;;;1860147;75;26284;-35
2021/12/04 12:41:48;;;;;;;0.40;0.40;;;;;;;;;;1846145;76;26572;-34
2021/12/04 12:44:26;;;;;;;0.50;0.50;;;;;;;;;;1852222;75;26262;-36
2021/12/04 12:47:02;;;;;;;0.70;0.70;;;;;;;;;;1849814;75;26604;-35
2021/12/04 12:49:34;;;;;;;0.30;0.30;;;;;;;;;;1860326;75;26281;-35
2021/12/04 12:52:01;;;;;;;0.60;0.60;;;;;;;;;;1839513;75;26311;-34
2021/12/04 12:54:39;;;;;;;0.33;0.33;;;;;;;;;;1847773;75;26205;-34
2021/12/04 12:57:09;;;;;;;0.50;0.50;;;;;;;;;;1858919;75;26278;-34
2021/12/04 12:59:45;;;;;;;0.50;0.50;;;;;;;;;;1860096;75;26934;-34
2021/12/04 13:13:26;;;;;;;0.50;0.50;;;;;;;;;;1842668;75;26722;-34
2021/12/04 13:15:57;;;;;;;0.50;0.50;;;;;;;;;;1857152;75;26261;-34
2021/12/04 13:18:25;;;;;;;0.60;0.60;;;;;;;;;;1847076;75;26273;-34
2021/12/04 13:20:53;;;;;;;0.50;0.50;;;;;;;;;;1864875;75;26318;-34
2021/12/04 13:23:22;;;;;;;0.50;0.50;;;;;;;;;;1849142;75;26336;-34
2021/12/04 13:25:53;;;;;;;0.40;0.40;;;;;;;;;;1858553;75;26790;-35
2021/12/04 13:30:50;;;;;;;0.40;0.40;;;;;;;;;;1858758;75;26343;-35
2021/12/04 13:33:18;;;;;;;0.45;0.45;;;;;;;;;;1856606;75;26306;-34
2021/12/04 13:35:46;;;;;;;0.70;0.70;;;;;;;;;;1856562;75;26881;-34
2021/12/04 13:38:15;;;;;;;0.42;0.42;;;;;;;;;;1855522;75;26455;-34
2021/12/04 13:40:44;;;;;;;0.50;0.50;;;;;;;;;;1858028;75;26335;-35
2021/12/04 13:43:12;;;;;;;0.40;0.40;;;;;;;;;;1871349;75;26269;-35
2021/12/04 13:45:41;;;;;;;0.50;0.50;;;;;;;;;;1849353;75;26289;-34
2021/12/04 13:48:08;;;;;;;0.50;0.50;;;;;;;;;;1860159;75;26370;-34
2021/12/04 13:53:07;;;;;;;0.60;0.60;;;;;;;;;;1860307;75;26309;-34
2021/12/04 13:55:36;;;;;;;0.50;0.50;;;;;;;;;;1856017;75;26279;-34
2021/12/04 13:58:04;;;;;;;0.53;0.53;;;;;;;;;;1855569;75;26248;-34
2021/12/04 14:00:32;;;;;;;0.33;0.33;;;;;;;;;;1856610;75;26697;-34
2021/12/04 14:02:59;;;;;;;0.53;0.53;;;;;;;;;;1853872;75;26276;-35
2021/12/04 14:05:27;;;;;;;0.50;0.50;;;;;;;;;;1853316;75;26316;-34
2021/12/04 14:07:55;;;;;;;0.55;0.55;;;;;;;;;;1860685;75;26248;-35
2021/12/04 14:10:25;;;;;;;0.47;0.47;;;;;;;;;;1843526;75;26522;-34
2021/12/04 14:12:54;;;;;;;0.40;0.40;;;;;;;;;;1866828;75;26387;-35
2021/12/04 14:15:22;;;;;;;0.57;0.57;;;;;;;;;;1845534;75;26354;-35
2021/12/04 14:17:51;;;;;;;0.50;0.50;;;;;;;;;;1843075;75;26256;-36
2021/12/04 14:20:20;;;;;;;0.50;0.50;;;;;;;;;;1860473;75;26369;-34
2021/12/04 14:22:48;;;;;;;0.50;0.50;;;;;;;;;;1859023;75;26265;-35
2021/12/04 14:25:17;;;;;;;0.50;0.50;;;;;;;;;;1856975;75;26803;-34
2021/12/04 14:27:44;;;;;;;0.50;0.50;;;;;;;;;;1857186;75;26860;-34
2021/12/04 14:30:13;;;;;;;0.40;0.40;;;;;;;;;;1861250;75;26294;-35
2021/12/04 14:32:43;;;;;;;0.47;0.47;;;;;;;;;;1856627;75;26268;-34
2021/12/04 14:35:15;;;;;;;0.60;0.60;;;;;;;;;;1859473;75;26378;-34
2021/12/04 14:37:44;;;;;;;0.40;0.40;;;;;;;;;;1845745;75;26214;-35
2021/12/04 14:40:13;;;;;;;0.50;0.50;;;;;;;;;;1854385;75;26246;-34
2021/12/04 14:42:41;;;;;;;0.40;0.40;;;;;;;;;;1842432;75;26201;-34
2021/12/04 14:45:10;;;;;;;0.40;0.40;;;;;;;;;;1851435;75;26892;-34
2021/12/04 14:47:39;;;;;;;0.50;0.50;;;;;;;;;;1849046;75;26760;-35
2021/12/04 14:50:07;;;;;;;0.50;0.50;;;;;;;;;;1864841;75;26961;-34
2021/12/04 14:52:35;;;;;;;0.50;0.50;;;;;;;;;;1859494;75;26338;-35
2021/12/04 14:55:13;;;;;;;0.47;0.47;;;;;;;;;;1859762;75;26314;-34
2021/12/04 14:57:41;;;;;;;0.60;0.60;;;;;;;;;;1853511;76;26847;-34
2021/12/04 15:00:10;;;;;;;0.53;0.53;;;;;;;;;;1861857;75;26319;-34
2021/12/04 15:02:37;;;;;;;0.40;0.40;;;;;;;;;;1858088;75;26253;-34
2021/12/04 15:05:06;;;;;;;0.40;0.40;;;;;;;;;;1855909;75;26296;-34
2021/12/04 15:07:34;;;;;;;0.70;0.70;;;;;;;;;;1852517;75;26706;-34
2021/12/04 15:10:18;;;;;;;0.40;0.40;;;;;;;;;;1850520;75;26850;-34
2021/12/04 15:12:45;;;;;;;0.60;0.60;;;;;;;;;;1858313;75;26639;-35
2021/12/04 15:15:13;;;;;;;0.60;0.60;;;;;;;;;;1845600;75;26645;-34
2021/12/04 15:17:42;;;;;;;0.50;0.50;;;;;;;;;;1849024;75;26800;-34
2021/12/04 15:20:17;;;;;;;0.57;0.57;;;;;;;;;;1852192;75;26324;-35
2021/12/04 15:22:43;;;;;;;0.50;0.50;;;;;;;;;;1857216;75;26438;-34
2021/12/04 15:25:12;;;;;;;0.40;0.40;;;;;;;;;;1854120;75;26288;-34
2021/12/04 15:27:40;;;;;;;0.50;0.50;;;;;;;;;;1836578;75;26276;-34
2021/12/04 15:30:10;;;;;;;0.50;0.50;;;;;;;;;;1862704;75;26218;-34
2021/12/04 15:32:40;;;;;;;0.42;0.42;;;;;;;;;;1849029;75;26749;-34
2021/12/04 15:35:42;;;;;;;0.55;0.55;;;;;;;;;;1858013;75;26245;-35
2021/12/04 15:38:19;;;;;;;0.50;0.50;;;;;;;;;;1848220;75;26285;-34
2021/12/04 15:40:52;;;;;;;0.60;0.60;;;;;;;;;;1844424;75;26343;-34
2021/12/04 15:43:27;;;;;;;0.50;0.50;;;;;;;;;;1847431;75;26771;-34
2021/12/04 15:54:22;;;;;;;0.50;0.50;;;;;;;;;;1857354;75;26694;-34
2021/12/04 15:56:49;;;;;;;0.62;0.62;;;;;;;;;;1856410;75;26670;-34
2021/12/04 15:59:26;;;;;;;0.50;0.50;;;;;;;;;;1861121;75;26820;-35
2021/12/04 16:01:55;;;;;;;0.57;0.57;;;;;;;;;;1855093;75;26237;-35
2021/12/04 16:04:24;;;;;;;0.62;0.62;;;;;;;;;;1852364;75;26316;-35
2021/12/04 16:06:52;;;;;;;0.55;0.55;;;;;;;;;;1852496;75;26675;-34
2021/12/04 16:09:26;;;;;;;0.60;0.60;;;;;;;;;;1869341;75;26246;-35
2021/12/04 16:12:01;;;;;;;0.60;0.60;;;;;;;;;;1855909;75;26253;-34
2021/12/04 16:14:29;;;;;;;0.60;0.60;;;;;;;;;;1859577;75;26280;-34
2021/12/04 16:16:57;;;;;;;0.50;0.50;;;;;;;;;;1851343;75;26276;-34
2021/12/04 16:19:27;;;;;;;0.62;0.62;;;;;;;;;;1856352;75;26398;-35
2021/12/04 16:21:59;;;;;;;0.60;0.60;;;;;;;;;;1847001;75;26269;-35
2021/12/04 16:24:23;;;;;;;0.50;0.50;;;;;;;;;;1852452;75;26866;-34
2021/12/04 16:26:55;;;;;;;0.60;0.60;;;;;;;;;;1849331;75;26291;-35
2021/12/04 16:29:21;;;;;;;0.60;0.60;;;;;;;;;;1864240;75;26325;-34
2021/12/04 16:37:08;;;;;;;0.90;0.90;;;;;;;;;;1860499;75;26272;-35
2021/12/04 16:39:24;;;;;;;0.85;0.85;;;;;;;;;;1849671;75;26280;-34
2021/12/04 16:41:53;;;;;;;0.80;0.80;;;;;;;;;;1848869;75;26261;-35
2021/12/04 16:44:20;;;;;;;0.70;0.70;;;;;;;;;;1861436;75;26757;-34
2021/12/04 16:46:49;;;;;;;0.80;0.80;;;;;;;;;;1845071;75;26265;-34
2021/12/04 16:49:17;;;;;;;0.75;0.75;;;;;;;;;;1845947;75;26394;-35
2021/12/04 16:55:00;;;;;;;1.17;0.60;;;;;;;;;;1857896;75;26327;-34
2021/12/04 16:59:55;;;;;;;0.80;0.80;;;;;;;;;;1851397;76;26907;-34
2021/12/04 17:02:20;;;;;;;0.78;0.78;;;;;;;;;;1853493;75;26281;-34
2021/12/04 17:04:49;;;;;;;0.80;0.80;;;;;;;;;;1851566;75;26713;-34
2021/12/04 17:07:20;;;;;;;0.70;0.70;;;;;;;;;;1855186;75;26311;-34
2021/12/04 17:09:47;;;;;;;0.80;0.80;;;;;;;;;;1853817;75;26651;-34
2021/12/04 17:12:15;;;;;;;0.70;0.70;;;;;;;;;;1848048;75;26339;-34
2021/12/04 17:14:42;;;;;;;0.80;0.80;;;;;;;;;;1868477;75;26351;-35
2021/12/04 17:17:12;;;;;;;0.70;0.70;;;;;;;;;;1872183;75;26254;-34
2021/12/04 17:19:40;;;;;;;0.60;0.60;;;;;;;;;;1855430;75;26793;-35
2021/12/04 17:22:07;;;;;;;0.80;0.80;;;;;;;;;;1856383;75;26241;-35
2021/12/04 17:24:35;;;;;;;0.75;0.75;;;;;;;;;;1855012;75;26265;-35
2021/12/04 17:27:06;;;;;;;0.75;0.75;;;;;;;;;;1850120;75;26260;-34
2021/12/04 17:29:34;;;;;;;0.75;0.75;;;;;;;;;;1844286;75;26323;-34
2021/12/04 17:32:02;;;;;;;0.78;0.78;;;;;;;;;;1851794;75;26327;-35
2021/12/04 17:34:30;;;;;;;0.62;0.62;;;;;;;;;;1839355;75;26277;-35
2021/12/04 17:36:57;;;;;;;0.80;0.80;;;;;;;;;;1856593;75;26920;-34
2021/12/04 17:39:24;;;;;;;0.80;0.80;;;;;;;;;;1862884;75;26326;-34
2021/12/04 17:41:52;;;;;;;0.78;0.78;;;;;;;;;;1862785;75;26248;-34
2021/12/04 17:44:21;;;;;;;0.70;0.70;;;;;;;;;;1858282;75;26261;-34
2021/12/04 17:46:50;;;;;;;0.80;0.80;;;;;;;;;;1861724;75;27376;-34
2021/12/04 17:49:17;;;;;;;0.80;0.80;;;;;;;;;;1858321;75;26257;-35
2021/12/04 17:51:45;;;;;;;0.80;0.80;;;;;;;;;;1858665;75;26270;-34
2021/12/04 17:54:13;;;;;;;0.80;0.80;;;;;;;;;;1855466;75;25826;-34
2021/12/04 17:56:42;;;;;;;0.75;0.75;;;;;;;;;;1855532;75;26316;-35
2021/12/04 17:59:09;;;;;;;0.80;0.80;;;;;;;;;;1862813;75;26358;-34
2021/12/04 18:01:38;;;;;;;0.82;0.82;;;;;;;;;;1861753;75;26683;-34